Terminal Aerodrome Forecast
Issued by NWS St Louis, MO

Home | Current Version | Previous Version | Graphics & Text | Print | Product List | Glossary On
Versions: 1 2 3 4 5 6 7 8 9 10 11 12 13 14 15 16 17 18 19 20 21 22 23 24 25 26
364
FTUS43 KLSX 090529
TAFSTL
TAF
KSTL 090529Z 0906/1012 30012KT 6SM -SN OVC030
      TEMPO 0907/0911 2SM -SN BKN020
     FM091700 31017KT P6SM OVC025
     FM091900 31017KT P6SM BKN035
     FM100500 31015G23KT P6SM SCT150=

USA.gov is the U.S. government's official web portal to all federal, state and local government web resources and services.